^^
Station Historical Data
Daily Summary for January 29, 2018 Units:  Both    English   Metric
« Previous Day
Next Day »
Daily Weekly Monthly Yearly Custom
  High: Low: Average:
Temperature: TemperatureF °F /  -17.8 °C 62.2 °F /  16.8 °C 77.3 °F /  25.2 °C
Dew Point: DewpointF °F /  -17.8 °C 28.6 °F /  -1.9 °C 42 °F /  5.6 °C
Humidity: Humidity% 14% 34%
Wind Speed: WindSpeedMPHmph /  0km/h - 1.4mph /  2.3km/h
Wind Gust: WindSpeedGustMPHmph /  0km/h - -
Wind- - WSW
Pressure: PressureIn in /  0 hPa 29.57 in /  1001.2 hPa -
Precipitation: 0.00 in /  0 mm    
Historical Graphs
 
 
Tabular Data for January 29, 2018
Time Temperature Dew Point Pressure Wind Wind Speed Wind Gust Humidity Rainfall Rate (Hourly) solar Conditions
TemperatureF °F /  -17.8 °C DewpointF °F /  -17.8 °C PressureInin /  0hPa Calm     Humidity% HourlyPrecipInin /  0mm SolarRadiationWatts/m^2 W/m2 Conditions
00:00 68.2 °F /  20.1 °C 54.7 °F /  12.6 °C 29.71in /  1006hPa Calm   1.0mph /  1.6km/h 62% 0.00in /  0mm 0.0 W/m2
00:05 67.8 °F /  19.9 °C 54.3 °F /  12.4 °C 29.72in /  1006.3hPa Calm     62% 0.00in /  0mm 0.0 W/m2
00:10 67.8 °F /  19.9 °C 54.7 °F /  12.6 °C 29.72in /  1006.3hPa Calm   2.0mph /  3.2km/h 63% 0.00in /  0mm 0.0 W/m2
00:15 67.6 °F /  19.8 °C 54.7 °F /  12.6 °C 29.72in /  1006.3hPa Calm     63% 0.00in /  0mm 0.0 W/m2
00:20 67.5 °F /  19.7 °C 54.5 °F /  12.5 °C 29.72in /  1006.3hPa Calm   4.0mph /  6.4km/h 63% 0.00in /  0mm 0.0 W/m2
00:25 67.5 °F /  19.7 °C 54.9 °F /  12.7 °C 29.72in /  1006.3hPa Calm   4.0mph /  6.4km/h 64% 0.00in /  0mm 0.0 W/m2
00:31 67.3 °F /  19.6 °C 54.7 °F /  12.6 °C 29.71in /  1006hPa Calm   1.0mph /  1.6km/h 64% 0.00in /  0mm 0.0 W/m2
00:36 67.3 °F /  19.6 °C 54.7 °F /  12.6 °C 29.71in /  1006hPa North 2.0mph /  3.2km/h 2.0mph /  3.2km/h 64% 0.00in /  0mm 0.0 W/m2
00:41 66.9 °F /  19.4 °C 54.3 °F /  12.4 °C 29.71in /  1006hPa Calm     64% 0.00in /  0mm 0.0 W/m2
00:47 66.9 °F /  19.4 °C 54.3 °F /  12.4 °C 29.70in /  1005.6hPa Calm   1.0mph /  1.6km/h 64% 0.00in /  0mm 0.0 W/m2
00:53 66.7 °F /  19.3 °C 54.7 °F /  12.6 °C 29.70in /  1005.6hPa Calm     65% 0.00in /  0mm 0.0 W/m2
00:58 66.6 °F /  19.2 °C 54.5 °F /  12.5 °C 29.70in /  1005.6hPa Calm     65% 0.00in /  0mm 0.0 W/m2
01:04 66.6 °F /  19.2 °C 54.5 °F /  12.5 °C 29.70in /  1005.6hPa Calm     65% 0.00in /  0mm 0.0 W/m2
01:09 66.4 °F /  19.1 °C 54.3 °F /  12.4 °C 29.70in /  1005.6hPa Calm     65% 0.00in /  0mm 0.0 W/m2
01:14 66.0 °F /  18.9 °C 54.0 °F /  12.2 °C 29.70in /  1005.6hPa Calm   1.0mph /  1.6km/h 65% 0.00in /  0mm 0.0 W/m2
01:20 65.8 °F /  18.8 °C 54.1 °F /  12.3 °C 29.69in /  1005.3hPa Calm   1.0mph /  1.6km/h 66% 0.00in /  0mm 0.0 W/m2
01:25 65.7 °F /  18.7 °C 54.0 °F /  12.2 °C 29.69in /  1005.3hPa Calm     66% 0.00in /  0mm 0.0 W/m2
01:31 65.7 °F /  18.7 °C 54.0 °F /  12.2 °C 29.69in /  1005.3hPa Calm   2.0mph /  3.2km/h 66% 0.00in /  0mm 0.0 W/m2
01:36 65.5 °F /  18.6 °C 53.8 °F /  12.1 °C 29.69in /  1005.3hPa Calm   1.0mph /  1.6km/h 66% 0.00in /  0mm 0.0 W/m2
01:41 65.3 °F /  18.5 °C 54.1 °F /  12.3 °C 29.68in /  1005hPa Calm     67% 0.00in /  0mm 0.0 W/m2
01:46 65.1 °F /  18.4 °C 54.0 °F /  12.2 °C 29.68in /  1005hPa Calm     67% 0.00in /  0mm 0.0 W/m2
01:51 65.1 °F /  18.4 °C 54.0 °F /  12.2 °C 29.68in /  1005hPa Calm     67% 0.00in /  0mm 0.0 W/m2
01:56 64.9 °F /  18.3 °C 53.8 °F /  12.1 °C 29.68in /  1005hPa Calm   1.0mph /  1.6km/h 67% 0.00in /  0mm 0.0 W/m2
02:01 64.8 °F /  18.2 °C 54.0 °F /  12.2 °C 29.68in /  1005hPa Calm     68% 0.00in /  0mm 0.0 W/m2
02:06 64.8 °F /  18.2 °C 54.0 °F /  12.2 °C 29.67in /  1004.6hPa Calm     68% 0.00in /  0mm 0.0 W/m2
02:11 64.6 °F /  18.1 °C 53.8 °F /  12.1 °C 29.67in /  1004.6hPa Calm     68% 0.00in /  0mm 0.0 W/m2
02:17 64.6 °F /  18.1 °C 53.8 °F /  12.1 °C 29.67in /  1004.6hPa Calm     68% 0.00in /  0mm 0.0 W/m2
02:22 64.2 °F /  17.9 °C 53.4 °F /  11.9 °C 29.67in /  1004.6hPa Calm     68% 0.00in /  0mm 0.0 W/m2
02:27 64.2 °F /  17.9 °C 53.4 °F /  11.9 °C 29.66in /  1004.3hPa Calm     68% 0.00in /  0mm 0.0 W/m2
02:33 64.0 °F /  17.8 °C 53.6 °F /  12 °C 29.66in /  1004.3hPa Calm     69% 0.00in /  0mm 0.0 W/m2
02:38 63.9 °F /  17.7 °C 53.1 °F /  11.7 °C 29.66in /  1004.3hPa Calm     68% 0.00in /  0mm 0.0 W/m2
02:43 63.7 °F /  17.6 °C 53.2 °F /  11.8 °C 29.65in /  1003.9hPa Calm     69% 0.00in /  0mm 0.0 W/m2
02:48 63.7 °F /  17.6 °C 53.2 °F /  11.8 °C 29.65in /  1003.9hPa Calm     69% 0.00in /  0mm 0.0 W/m2
02:53 63.3 °F /  17.4 °C 53.4 °F /  11.9 °C 29.65in /  1003.9hPa Calm     70% 0.00in /  0mm 0.0 W/m2
02:59 63.3 °F /  17.4 °C 53.4 °F /  11.9 °C 29.65in /  1003.9hPa Calm     70% 0.00in /  0mm 0.0 W/m2
03:04 63.3 °F /  17.4 °C 53.4 °F /  11.9 °C 29.65in /  1003.9hPa Calm     70% 0.00in /  0mm 0.0 W/m2
03:09 63.1 °F /  17.3 °C 53.2 °F /  11.8 °C 29.65in /  1003.9hPa Calm   1.0mph /  1.6km/h 70% 0.00in /  0mm 0.0 W/m2
03:14 63.0 °F /  17.2 °C 53.1 °F /  11.7 °C 29.65in /  1003.9hPa Calm   1.0mph /  1.6km/h 70% 0.00in /  0mm 0.0 W/m2
03:19 63.0 °F /  17.2 °C 53.1 °F /  11.7 °C 29.65in /  1003.9hPa Calm     70% 0.00in /  0mm 0.0 W/m2
03:24 62.8 °F /  17.1 °C 53.2 °F /  11.8 °C 29.65in /  1003.9hPa Calm     71% 0.00in /  0mm 0.0 W/m2
03:29 62.6 °F /  17 °C 53.1 °F /  11.7 °C 29.65in /  1003.9hPa Calm   1.0mph /  1.6km/h 71% 0.00in /  0mm 0.0 W/m2
03:34 62.6 °F /  17 °C 53.1 °F /  11.7 °C 29.65in /  1003.9hPa Calm   1.0mph /  1.6km/h 71% 0.00in /  0mm 0.0 W/m2
03:39 62.4 °F /  16.9 °C 52.9 °F /  11.6 °C 29.65in /  1003.9hPa Calm   2.0mph /  3.2km/h 71% 0.00in /  0mm 0.0 W/m2
03:45 62.4 °F /  16.9 °C 52.9 °F /  11.6 °C 29.64in /  1003.6hPa Calm   1.0mph /  1.6km/h 71% 0.00in /  0mm 0.0 W/m2
03:50 62.4 °F /  16.9 °C 52.9 °F /  11.6 °C 29.64in /  1003.6hPa Calm     71% 0.00in /  0mm 0.0 W/m2
03:55 62.4 °F /  16.9 °C 52.9 °F /  11.6 °C 29.64in /  1003.6hPa Calm   1.0mph /  1.6km/h 71% 0.00in /  0mm 0.0 W/m2
04:00 62.2 °F /  16.8 °C 53.1 °F /  11.7 °C 29.65in /  1003.9hPa Calm   1.0mph /  1.6km/h 72% 0.00in /  0mm 0.0 W/m2
04:05 62.2 °F /  16.8 °C 53.1 °F /  11.7 °C 29.65in /  1003.9hPa Calm   1.0mph /  1.6km/h 72% 0.00in /  0mm 0.0 W/m2
04:10 62.2 °F /  16.8 °C 53.1 °F /  11.7 °C 29.65in /  1003.9hPa Calm     72% 0.00in /  0mm 0.0 W/m2
04:15 62.2 °F /  16.8 °C 53.1 °F /  11.7 °C 29.65in /  1003.9hPa Calm     72% 0.00in /  0mm 0.0 W/m2
04:21 62.2 °F /  16.8 °C 53.1 °F /  11.7 °C 29.65in /  1003.9hPa Calm   1.0mph /  1.6km/h 72% 0.00in /  0mm 0.0 W/m2
04:26 62.2 °F /  16.8 °C 52.7 °F /  11.5 °C 29.65in /  1003.9hPa Calm   1.0mph /  1.6km/h 71% 0.00in /  0mm 0.0 W/m2
04:31 62.2 °F /  16.8 °C 51.6 °F /  10.9 °C 29.64in /  1003.6hPa SSE 0.9mph /  1.4km/h 3.0mph /  4.8km/h 68% 0.00in /  0mm 0.0 W/m2
04:36 62.2 °F /  16.8 °C 51.6 °F /  10.9 °C 29.65in /  1003.9hPa Calm     68% 0.00in /  0mm 0.0 W/m2
04:41 62.4 °F /  16.9 °C 51.3 °F /  10.7 °C 29.64in /  1003.6hPa Calm     67% 0.00in /  0mm 0.0 W/m2
04:46 62.4 °F /  16.9 °C 51.8 °F /  11 °C 29.65in /  1003.9hPa Calm     68% 0.00in /  0mm 0.0 W/m2
04:51 62.8 °F /  17.1 °C 51.6 °F /  10.9 °C 29.65in /  1003.9hPa Calm     67% 0.00in /  0mm 0.0 W/m2
04:56 62.8 °F /  17.1 °C 51.6 °F /  10.9 °C 29.65in /  1003.9hPa Calm     67% 0.00in /  0mm 0.0 W/m2
05:02 62.8 °F /  17.1 °C 52.0 °F /  11.1 °C 29.65in /  1003.9hPa Calm     68% 0.00in /  0mm 0.0 W/m2
05:07 63.0 °F /  17.2 °C 52.2 °F /  11.2 °C 29.65in /  1003.9hPa Calm     68% 0.00in /  0mm 0.0 W/m2
05:12 63.0 °F /  17.2 °C 51.8 °F /  11 °C 29.65in /  1003.9hPa ESE 2.0mph /  3.2km/h 3.0mph /  4.8km/h 67% 0.00in /  0mm 0.0 W/m2
05:17 63.1 °F /  17.3 °C 51.6 °F /  10.9 °C 29.65in /  1003.9hPa Calm   2.0mph /  3.2km/h 66% 0.00in /  0mm 0.0 W/m2
05:22 63.1 °F /  17.3 °C 50.4 °F /  10.2 °C 29.65in /  1003.9hPa ESE 2.0mph /  3.2km/h 3.0mph /  4.8km/h 63% 0.00in /  0mm 0.0 W/m2
05:27 63.1 °F /  17.3 °C 50.4 °F /  10.2 °C 29.65in /  1003.9hPa Calm   1.0mph /  1.6km/h 63% 0.00in /  0mm 0.0 W/m2
05:32 63.1 °F /  17.3 °C 50.4 °F /  10.2 °C 29.65in /  1003.9hPa Calm   2.0mph /  3.2km/h 63% 0.00in /  0mm 0.0 W/m2
05:37 63.1 °F /  17.3 °C 50.4 °F /  10.2 °C 29.65in /  1003.9hPa Calm   2.0mph /  3.2km/h 63% 0.00in /  0mm 0.0 W/m2
05:43 63.1 °F /  17.3 °C 50.7 °F /  10.4 °C 29.66in /  1004.3hPa Calm     64% 0.00in /  0mm 0.0 W/m2
05:48 63.3 °F /  17.4 °C 50.5 °F /  10.3 °C 29.66in /  1004.3hPa Calm   2.0mph /  3.2km/h 63% 0.00in /  0mm 0.0 W/m2
05:53 63.3 °F /  17.4 °C 50.5 °F /  10.3 °C 29.66in /  1004.3hPa Calm   1.0mph /  1.6km/h 63% 0.00in /  0mm 0.0 W/m2
05:58 63.3 °F /  17.4 °C 50.5 °F /  10.3 °C 29.66in /  1004.3hPa ESE 0.9mph /  1.4km/h 2.0mph /  3.2km/h 63% 0.00in /  0mm 0.0 W/m2
06:03 63.5 °F /  17.5 °C 50.2 °F /  10.1 °C 29.66in /  1004.3hPa ESE 0.9mph /  1.4km/h 2.0mph /  3.2km/h 62% 0.00in /  0mm 0.0 W/m2
06:08 63.5 °F /  17.5 °C 50.2 °F /  10.1 °C 29.67in /  1004.6hPa Calm   1.0mph /  1.6km/h 62% 0.00in /  0mm 0.0 W/m2
06:13 63.7 °F /  17.6 °C 50.9 °F /  10.5 °C 29.67in /  1004.6hPa Calm   1.0mph /  1.6km/h 63% 0.00in /  0mm 0.0 W/m2
06:18 63.7 °F /  17.6 °C 50.9 °F /  10.5 °C 29.67in /  1004.6hPa Calm     63% 0.00in /  0mm 0.0 W/m2
06:24 63.7 °F /  17.6 °C 50.4 °F /  10.2 °C 29.67in /  1004.6hPa Calm     62% 0.00in /  0mm 0.0 W/m2
06:29 63.5 °F /  17.5 °C 50.2 °F /  10.1 °C 29.67in /  1004.6hPa Calm   2.0mph /  3.2km/h 62% 0.00in /  0mm 7.0 W/m2
06:34 63.5 °F /  17.5 °C 49.8 °F /  9.9 °C 29.68in /  1005hPa Calm     61% 0.00in /  0mm 12.0 W/m2
06:39 63.7 °F /  17.6 °C 49.5 °F /  9.7 °C 29.68in /  1005hPa Calm     60% 0.00in /  0mm 16.0 W/m2
06:44 63.7 °F /  17.6 °C 49.5 °F /  9.7 °C 29.68in /  1005hPa East 0.9mph /  1.4km/h 3.0mph /  4.8km/h 60% 0.00in /  0mm 18.0 W/m2
06:49 63.7 °F /  17.6 °C 49.1 °F /  9.5 °C 29.69in /  1005.3hPa Calm   2.0mph /  3.2km/h 59% 0.00in /  0mm 21.0 W/m2
06:54 63.7 °F /  17.6 °C 48.6 °F /  9.2 °C 29.69in /  1005.3hPa Calm   2.0mph /  3.2km/h 58% 0.00in /  0mm 26.0 W/m2
06:59 63.7 °F /  17.6 °C 49.1 °F /  9.5 °C 29.69in /  1005.3hPa Calm   1.0mph /  1.6km/h 59% 0.00in /  0mm 32.0 W/m2
07:05 63.9 °F /  17.7 °C 49.3 °F /  9.6 °C 29.69in /  1005.3hPa Calm     59% 0.00in /  0mm 37.0 W/m2
07:10 63.9 °F /  17.7 °C 48.7 °F /  9.3 °C 29.69in /  1005.3hPa Calm   2.0mph /  3.2km/h 58% 0.00in /  0mm 42.0 W/m2
07:15 64.0 °F /  17.8 °C 48.9 °F /  9.4 °C 29.70in /  1005.6hPa Calm     58% 0.00in /  0mm 47.0 W/m2
07:20 64.0 °F /  17.8 °C 48.9 °F /  9.4 °C 29.70in /  1005.6hPa Calm   1.0mph /  1.6km/h 58% 0.00in /  0mm 47.0 W/m2
07:25 64.0 °F /  17.8 °C 48.6 °F /  9.2 °C 29.70in /  1005.6hPa Calm   1.0mph /  1.6km/h 57% 0.00in /  0mm 46.0 W/m2
07:30 64.2 °F /  17.9 °C 48.7 °F /  9.3 °C 29.70in /  1005.6hPa Calm   1.0mph /  1.6km/h 57% 0.00in /  0mm 51.0 W/m2
07:35 64.6 °F /  18.1 °C 48.9 °F /  9.4 °C 29.70in /  1005.6hPa Calm   2.0mph /  3.2km/h 57% 0.00in /  0mm 67.0 W/m2
07:40 64.8 °F /  18.2 °C 48.2 °F /  9 °C 29.71in /  1006hPa Calm   2.0mph /  3.2km/h 55% 0.00in /  0mm 72.0 W/m2
07:45 64.9 °F /  18.3 °C 47.8 °F /  8.8 °C 29.71in /  1006hPa Calm     54% 0.00in /  0mm 109.0 W/m2
07:50 65.1 °F /  18.4 °C 47.1 °F /  8.4 °C 29.71in /  1006hPa Calm     52% 0.00in /  0mm 104.0 W/m2
07:56 65.7 °F /  18.7 °C 47.5 °F /  8.6 °C 29.71in /  1006hPa Calm     52% 0.00in /  0mm 105.0 W/m2
08:01 66.0 °F /  18.9 °C 46.4 °F /  8 °C 29.71in /  1006hPa Calm   1.0mph /  1.6km/h 49% 0.00in /  0mm 111.0 W/m2
08:06 66.7 °F /  19.3 °C 47.5 °F /  8.6 °C 29.71in /  1006hPa Calm     50% 0.00in /  0mm 123.0 W/m2
08:11 67.3 °F /  19.6 °C 44.1 °F /  6.7 °C 29.71in /  1006hPa Calm     43% 0.00in /  0mm 229.0 W/m2
08:16 68.0 °F /  20 °C 43.3 °F /  6.3 °C 29.71in /  1006hPa Calm   1.0mph /  1.6km/h 41% 0.00in /  0mm 209.0 W/m2
08:21 68.7 °F /  20.4 °C 42.8 °F /  6 °C 29.72in /  1006.3hPa Calm   1.0mph /  1.6km/h 39% 0.00in /  0mm 394.0 W/m2
08:26 70.0 °F /  21.1 °C 42.4 °F /  5.8 °C 29.72in /  1006.3hPa Calm     37% 0.00in /  0mm 499.0 W/m2
08:31 71.1 °F /  21.7 °C 42.8 °F /  6 °C 29.72in /  1006.3hPa Calm   2.0mph /  3.2km/h 36% 0.00in /  0mm 617.0 W/m2
08:36 72.1 °F /  22.3 °C 42.3 °F /  5.7 °C 29.72in /  1006.3hPa Calm   3.0mph /  4.8km/h 34% 0.00in /  0mm 610.0 W/m2
08:42 73.6 °F /  23.1 °C 43.5 °F /  6.4 °C 29.72in /  1006.3hPa West 0.9mph /  1.4km/h 2.0mph /  3.2km/h 34% 0.00in /  0mm 629.0 W/m2
08:47 74.7 °F /  23.7 °C 42.1 °F /  5.6 °C 29.72in /  1006.3hPa Calm   2.0mph /  3.2km/h 31% 0.00in /  0mm 594.0 W/m2
08:52 75.4 °F /  24.1 °C 42.6 °F /  5.9 °C 29.72in /  1006.3hPa WSW 0.9mph /  1.4km/h 5.0mph /  8km/h 31% 0.00in /  0mm 570.0 W/m2
08:57 76.1 °F /  24.5 °C 41.5 °F /  5.3 °C 29.72in /  1006.3hPa WSW 2.9mph /  4.7km/h 5.0mph /  8km/h 29% 0.00in /  0mm 559.0 W/m2
09:02 76.6 °F /  24.8 °C 42.1 °F /  5.6 °C 29.72in /  1006.3hPa WSW 4.0mph /  6.4km/h 8.0mph /  12.9km/h 29% 0.00in /  0mm 564.0 W/m2
09:07 77.2 °F /  25.1 °C 42.4 °F /  5.8 °C 29.71in /  1006hPa Calm   1.0mph /  1.6km/h 29% 0.00in /  0mm 596.0 W/m2
09:12 77.9 °F /  25.5 °C 42.3 °F /  5.7 °C 29.72in /  1006.3hPa West 2.0mph /  3.2km/h 3.0mph /  4.8km/h 28% 0.00in /  0mm 608.0 W/m2
09:17 78.3 °F /  25.7 °C 41.5 °F /  5.3 °C 29.72in /  1006.3hPa Calm   4.0mph /  6.4km/h 27% 0.00in /  0mm 628.0 W/m2
09:22 79.0 °F /  26.1 °C 43.2 °F /  6.2 °C 29.71in /  1006hPa Calm   3.0mph /  4.8km/h 28% 0.00in /  0mm 654.0 W/m2
09:28 80.1 °F /  26.7 °C 42.1 °F /  5.6 °C 29.71in /  1006hPa Calm   2.0mph /  3.2km/h 26% 0.00in /  0mm 687.0 W/m2
09:33 80.6 °F /  27 °C 41.5 °F /  5.3 °C 29.71in /  1006hPa Calm   2.0mph /  3.2km/h 25% 0.00in /  0mm 698.0 W/m2
09:38 81.0 °F /  27.2 °C 40.8 °F /  4.9 °C 29.71in /  1006hPa West 2.9mph /  4.7km/h 5.0mph /  8km/h 24% 0.00in /  0mm 710.0 W/m2
09:43 80.8 °F /  27.1 °C 40.6 °F /  4.8 °C 29.71in /  1006hPa Calm   4.0mph /  6.4km/h 24% 0.00in /  0mm 707.0 W/m2
09:48 80.8 °F /  27.1 °C 40.6 °F /  4.8 °C 29.71in /  1006hPa WNW 2.0mph /  3.2km/h 5.0mph /  8km/h 24% 0.00in /  0mm 707.0 W/m2
09:53 81.3 °F /  27.4 °C 42.1 °F /  5.6 °C 29.71in /  1006hPa SW 0.9mph /  1.4km/h 3.0mph /  4.8km/h 25% 0.00in /  0mm 724.0 W/m2
09:58 81.7 °F /  27.6 °C 39.2 °F /  4 °C 29.71in /  1006hPa WSW 4.9mph /  7.9km/h 7.0mph /  11.3km/h 22% 0.00in /  0mm 763.0 W/m2
10:03 81.5 °F /  27.5 °C 39.0 °F /  3.9 °C 29.72in /  1006.3hPa NNW 0.9mph /  1.4km/h 4.0mph /  6.4km/h 22% 0.00in /  0mm 789.0 W/m2
10:09 81.9 °F /  27.7 °C 39.2 °F /  4 °C 29.72in /  1006.3hPa Calm   2.0mph /  3.2km/h 22% 0.00in /  0mm 749.0 W/m2
10:15 82.4 °F /  28 °C 39.7 °F /  4.3 °C 29.72in /  1006.3hPa Calm   2.0mph /  3.2km/h 22% 0.00in /  0mm 742.0 W/m2
10:20 82.8 °F /  28.2 °C 40.1 °F /  4.5 °C 29.72in /  1006.3hPa NNW 2.9mph /  4.7km/h 5.0mph /  8km/h 22% 0.00in /  0mm 772.0 W/m2
10:25 83.7 °F /  28.7 °C 39.6 °F /  4.2 °C 29.72in /  1006.3hPa SW 0.9mph /  1.4km/h 4.0mph /  6.4km/h 21% 0.00in /  0mm 795.0 W/m2
10:30 84.0 °F /  28.9 °C 41.0 °F /  5 °C 29.72in /  1006.3hPa West 2.9mph /  4.7km/h 4.0mph /  6.4km/h 22% 0.00in /  0mm 782.0 W/m2
10:35 84.4 °F /  29.1 °C 39.0 °F /  3.9 °C 29.72in /  1006.3hPa Calm   2.0mph /  3.2km/h 20% 0.00in /  0mm 816.0 W/m2
10:40 84.7 °F /  29.3 °C 39.2 °F /  4 °C 29.72in /  1006.3hPa West 0.9mph /  1.4km/h 7.0mph /  11.3km/h 20% 0.00in /  0mm 861.0 W/m2
10:45 85.5 °F /  29.7 °C 39.7 °F /  4.3 °C 29.71in /  1006hPa NNE 4.9mph /  7.9km/h 5.0mph /  8km/h 20% 0.00in /  0mm 889.0 W/m2
10:50 85.6 °F /  29.8 °C 39.9 °F /  4.4 °C 29.71in /  1006hPa NE 2.0mph /  3.2km/h 7.0mph /  11.3km/h 20% 0.00in /  0mm 904.0 W/m2
10:55 85.6 °F /  29.8 °C 39.9 °F /  4.4 °C 29.71in /  1006hPa NW 2.0mph /  3.2km/h 6.0mph /  9.7km/h 20% 0.00in /  0mm 904.0 W/m2
11:01 85.8 °F /  29.9 °C 40.1 °F /  4.5 °C 29.71in /  1006hPa NNW 2.9mph /  4.7km/h 3.0mph /  4.8km/h 20% 0.00in /  0mm 923.0 W/m2
11:06 86.2 °F /  30.1 °C 40.5 °F /  4.7 °C 29.71in /  1006hPa NW 2.0mph /  3.2km/h 4.0mph /  6.4km/h 20% 0.00in /  0mm 933.0 W/m2
11:12 86.7 °F /  30.4 °C 39.6 °F /  4.2 °C 29.71in /  1006hPa North 2.9mph /  4.7km/h 7.0mph /  11.3km/h 19% 0.00in /  0mm 947.0 W/m2
11:19 87.6 °F /  30.9 °C 38.8 °F /  3.8 °C 29.71in /  1006hPa NNW 2.9mph /  4.7km/h 3.0mph /  4.8km/h 18% 0.00in /  0mm 969.0 W/m2
11:24 88.0 °F /  31.1 °C 39.2 °F /  4 °C 29.71in /  1006hPa Calm   2.0mph /  3.2km/h 18% 0.00in /  0mm 997.0 W/m2
11:29 88.3 °F /  31.3 °C 39.4 °F /  4.1 °C 29.71in /  1006hPa North 8.1mph /  13km/h 8.1mph /  13km/h 18% 0.00in /  0mm 974.0 W/m2
11:34 88.9 °F /  31.6 °C 38.5 °F /  3.6 °C 29.70in /  1005.6hPa North 2.9mph /  4.7km/h 6.0mph /  9.7km/h 17% 0.00in /  0mm 1005.0 W/m2
11:39 88.7 °F /  31.5 °C 38.3 °F /  3.5 °C 29.70in /  1005.6hPa Calm   5.0mph /  8km/h 17% 0.00in /  0mm 997.0 W/m2
11:44 88.7 °F /  31.5 °C 38.3 °F /  3.5 °C 29.70in /  1005.6hPa WNW 2.0mph /  3.2km/h 8.0mph /  12.9km/h 17% 0.00in /  0mm 1009.0 W/m2
11:50 88.9 °F /  31.6 °C 39.9 °F /  4.4 °C 29.70in /  1005.6hPa WNW 2.0mph /  3.2km/h 5.0mph /  8km/h 18% 0.00in /  0mm 1000.0 W/m2
11:55 89.4 °F /  31.9 °C 38.8 °F /  3.8 °C 29.70in /  1005.6hPa WNW 6.9mph /  11.1km/h 7.0mph /  11.3km/h 17% 0.00in /  0mm 1020.0 W/m2
12:00 90.1 °F /  32.3 °C 39.4 °F /  4.1 °C 29.69in /  1005.3hPa WNW 0.9mph /  1.4km/h 8.0mph /  12.9km/h 17% 0.00in /  0mm 1028.0 W/m2
12:05 90.7 °F /  32.6 °C 39.9 °F /  4.4 °C 29.69in /  1005.3hPa WSW 0.9mph /  1.4km/h 4.0mph /  6.4km/h 17% 0.00in /  0mm 1030.0 W/m2
12:10 90.9 °F /  32.7 °C 38.5 °F /  3.6 °C 29.69in /  1005.3hPa North 2.9mph /  4.7km/h 9.0mph /  14.5km/h 16% 0.00in /  0mm 1032.0 W/m2
12:15 91.0 °F /  32.8 °C 38.7 °F /  3.7 °C 29.69in /  1005.3hPa NW 2.9mph /  4.7km/h 5.0mph /  8km/h 16% 0.00in /  0mm 1041.0 W/m2
12:20 91.0 °F /  32.8 °C 40.1 °F /  4.5 °C 29.68in /  1005hPa WNW 0.9mph /  1.4km/h 3.0mph /  4.8km/h 17% 0.00in /  0mm 1046.0 W/m2
12:25 91.0 °F /  32.8 °C 40.1 °F /  4.5 °C 29.68in /  1005hPa East 2.0mph /  3.2km/h 2.0mph /  3.2km/h 17% 0.00in /  0mm 1120.0 W/m2
12:30 91.4 °F /  33 °C 38.8 °F /  3.8 °C 29.68in /  1005hPa NNW 6.9mph /  11.1km/h 8.0mph /  12.9km/h 16% 0.00in /  0mm 411.0 W/m2
12:36 91.0 °F /  32.8 °C 38.7 °F /  3.7 °C 29.68in /  1005hPa WNW 2.0mph /  3.2km/h 5.0mph /  8km/h 16% 0.00in /  0mm 1157.0 W/m2
12:41 91.2 °F /  32.9 °C 40.3 °F /  4.6 °C 29.68in /  1005hPa NW 6.9mph /  11.1km/h 8.0mph /  12.9km/h 17% 0.00in /  0mm 1146.0 W/m2
12:46 91.8 °F /  33.2 °C 39.2 °F /  4 °C 29.67in /  1004.6hPa WNW 2.9mph /  4.7km/h 3.0mph /  4.8km/h 16% 0.00in /  0mm 1179.0 W/m2
12:52 92.1 °F /  33.4 °C 39.6 °F /  4.2 °C 29.67in /  1004.6hPa NW 2.9mph /  4.7km/h 9.0mph /  14.5km/h 16% 0.00in /  0mm 721.0 W/m2
12:57 92.1 °F /  33.4 °C 39.6 °F /  4.2 °C 29.67in /  1004.6hPa WSW 2.9mph /  4.7km/h 7.0mph /  11.3km/h 16% 0.00in /  0mm 1318.0 W/m2
13:02 91.9 °F /  33.3 °C 39.4 °F /  4.1 °C 29.67in /  1004.6hPa Calm   8.0mph /  12.9km/h 16% 0.00in /  0mm 802.0 W/m2
13:07 92.5 °F /  33.6 °C 39.7 °F /  4.3 °C 29.66in /  1004.3hPa Calm   3.0mph /  4.8km/h 16% 0.00in /  0mm 1366.0 W/m2
13:12 93.0 °F /  33.9 °C 40.3 °F /  4.6 °C 29.66in /  1004.3hPa North 4.0mph /  6.4km/h 9.0mph /  14.5km/h 16% 0.00in /  0mm 773.0 W/m2
13:17 93.4 °F /  34.1 °C 40.5 °F /  4.7 °C 29.66in /  1004.3hPa NNW 4.9mph /  7.9km/h 8.0mph /  12.9km/h 16% 0.00in /  0mm 710.0 W/m2
13:23 93.4 °F /  34.1 °C 40.5 °F /  4.7 °C 29.66in /  1004.3hPa West 2.9mph /  4.7km/h 7.0mph /  11.3km/h 16% 0.00in /  0mm 951.0 W/m2
13:28 93.7 °F /  34.3 °C 39.2 °F /  4 °C 29.66in /  1004.3hPa North 2.9mph /  4.7km/h 6.0mph /  9.7km/h 15% 0.00in /  0mm 654.0 W/m2
13:33 93.7 °F /  34.3 °C 39.2 °F /  4 °C 29.65in /  1003.9hPa NE 4.0mph /  6.4km/h 6.0mph /  9.7km/h 15% 0.00in /  0mm 489.0 W/m2
13:38 93.2 °F /  34 °C 38.7 °F /  3.7 °C 29.65in /  1003.9hPa NNW 2.9mph /  4.7km/h 8.0mph /  12.9km/h 15% 0.00in /  0mm 596.0 W/m2
13:43 92.7 °F /  33.7 °C 39.9 °F /  4.4 °C 29.65in /  1003.9hPa NW 6.9mph /  11.1km/h 8.0mph /  12.9km/h 16% 0.00in /  0mm 1111.0 W/m2
13:48 92.8 °F /  33.8 °C 38.5 °F /  3.6 °C 29.65in /  1003.9hPa NNW 0.9mph /  1.4km/h 5.0mph /  8km/h 15% 0.00in /  0mm 990.0 W/m2
13:53 93.4 °F /  34.1 °C 40.5 °F /  4.7 °C 29.65in /  1003.9hPa NNW 4.9mph /  7.9km/h 8.0mph /  12.9km/h 16% 0.00in /  0mm 464.0 W/m2
13:58 92.8 °F /  33.8 °C 40.1 °F /  4.5 °C 29.64in /  1003.6hPa NW 0.9mph /  1.4km/h 7.0mph /  11.3km/h 16% 0.00in /  0mm 568.0 W/m2
14:03 92.8 °F /  33.8 °C 40.1 °F /  4.5 °C 29.64in /  1003.6hPa Calm   5.0mph /  8km/h 16% 0.00in /  0mm 529.0 W/m2
14:09 92.8 °F /  33.8 °C 40.1 °F /  4.5 °C 29.64in /  1003.6hPa West 4.9mph /  7.9km/h 5.0mph /  8km/h 16% 0.00in /  0mm 541.0 W/m2
14:14 92.7 °F /  33.7 °C 39.9 °F /  4.4 °C 29.64in /  1003.6hPa North 4.9mph /  7.9km/h 5.0mph /  8km/h 16% 0.00in /  0mm 580.0 W/m2
14:19 92.7 °F /  33.7 °C 39.9 °F /  4.4 °C 29.63in /  1003.3hPa SW 2.0mph /  3.2km/h 6.0mph /  9.7km/h 16% 0.00in /  0mm 522.0 W/m2
14:24 92.1 °F /  33.4 °C 39.6 °F /  4.2 °C 29.63in /  1003.3hPa ENE 4.0mph /  6.4km/h 7.0mph /  11.3km/h 16% 0.00in /  0mm 471.0 W/m2
14:29 91.9 °F /  33.3 °C 39.4 °F /  4.1 °C 29.63in /  1003.3hPa NNW 4.9mph /  7.9km/h 7.0mph /  11.3km/h 16% 0.00in /  0mm 529.0 W/m2
14:34 91.9 °F /  33.3 °C 39.4 °F /  4.1 °C 29.63in /  1003.3hPa SW 0.9mph /  1.4km/h 7.0mph /  11.3km/h 16% 0.00in /  0mm 362.0 W/m2
14:39 91.8 °F /  33.2 °C 40.8 °F /  4.9 °C 29.63in /  1003.3hPa Calm   5.0mph /  8km/h 17% 0.00in /  0mm 313.0 W/m2
14:44 91.0 °F /  32.8 °C 40.1 °F /  4.5 °C 29.63in /  1003.3hPa NW 2.9mph /  4.7km/h 9.0mph /  14.5km/h 17% 0.00in /  0mm 295.0 W/m2
14:49 90.7 °F /  32.6 °C 39.9 °F /  4.4 °C 29.63in /  1003.3hPa West 2.0mph /  3.2km/h 3.0mph /  4.8km/h 17% 0.00in /  0mm 281.0 W/m2
14:54 90.3 °F /  32.4 °C 39.6 °F /  4.2 °C 29.63in /  1003.3hPa Calm   11.0mph /  17.7km/h 17% 0.00in /  0mm 267.0 W/m2
15:00 90.1 °F /  32.3 °C 39.4 °F /  4.1 °C 29.62in /  1002.9hPa Calm   3.0mph /  4.8km/h 17% 0.00in /  0mm 271.0 W/m2
15:05 90.0 °F /  32.2 °C 40.8 °F /  4.9 °C 29.62in /  1002.9hPa WNW 4.0mph /  6.4km/h 7.0mph /  11.3km/h 18% 0.00in /  0mm 244.0 W/m2
15:10 90.1 °F /  32.3 °C 41.0 °F /  5 °C 29.62in /  1002.9hPa WSW 4.0mph /  6.4km/h 6.0mph /  9.7km/h 18% 0.00in /  0mm 234.0 W/m2
15:15 89.8 °F /  32.1 °C 40.6 °F /  4.8 °C 29.62in /  1002.9hPa Calm   7.0mph /  11.3km/h 18% 0.00in /  0mm 232.0 W/m2
15:20 89.4 °F /  31.9 °C 41.7 °F /  5.4 °C 29.62in /  1002.9hPa WSW 0.9mph /  1.4km/h 1.0mph /  1.6km/h 19% 0.00in /  0mm 243.0 W/m2
15:25 89.6 °F /  32 °C 40.5 °F /  4.7 °C 29.62in /  1002.9hPa Calm   5.0mph /  8km/h 18% 0.00in /  0mm 271.0 W/m2
15:30 89.6 °F /  32 °C 41.9 °F /  5.5 °C 29.62in /  1002.9hPa Calm   2.0mph /  3.2km/h 19% 0.00in /  0mm 295.0 W/m2
15:36 89.6 °F /  32 °C 40.5 °F /  4.7 °C 29.62in /  1002.9hPa NNW 2.0mph /  3.2km/h 3.0mph /  4.8km/h 18% 0.00in /  0mm 309.0 W/m2
15:41 89.8 °F /  32.1 °C 40.6 °F /  4.8 °C 29.62in /  1002.9hPa NNW 4.9mph /  7.9km/h 9.0mph /  14.5km/h 18% 0.00in /  0mm 318.0 W/m2
15:46 89.6 °F /  32 °C 41.9 °F /  5.5 °C 29.62in /  1002.9hPa Calm   5.0mph /  8km/h 19% 0.00in /  0mm 302.0 W/m2
15:51 89.6 °F /  32 °C 40.5 °F /  4.7 °C 29.61in /  1002.6hPa NNW 2.9mph /  4.7km/h 4.0mph /  6.4km/h 18% 0.00in /  0mm 304.0 W/m2
15:56 89.8 °F /  32.1 °C 40.6 °F /  4.8 °C 29.61in /  1002.6hPa NNW 4.0mph /  6.4km/h 7.0mph /  11.3km/h 18% 0.00in /  0mm 343.0 W/m2
16:01 89.8 °F /  32.1 °C 40.6 °F /  4.8 °C 29.61in /  1002.6hPa East 2.0mph /  3.2km/h 5.0mph /  8km/h 18% 0.00in /  0mm 332.0 W/m2
16:06 89.8 °F /  32.1 °C 40.6 °F /  4.8 °C 29.60in /  1002.3hPa NNE 6.0mph /  9.7km/h 10.0mph /  16.1km/h 18% 0.00in /  0mm 295.0 W/m2
16:11 89.8 °F /  32.1 °C 40.6 °F /  4.8 °C 29.60in /  1002.3hPa Calm   3.0mph /  4.8km/h 18% 0.00in /  0mm 258.0 W/m2
16:16 89.8 °F /  32.1 °C 40.6 °F /  4.8 °C 29.60in /  1002.3hPa Calm   2.0mph /  3.2km/h 18% 0.00in /  0mm 223.0 W/m2
16:22 89.8 °F /  32.1 °C 40.6 °F /  4.8 °C 29.60in /  1002.3hPa NNW 4.0mph /  6.4km/h 5.0mph /  8km/h 18% 0.00in /  0mm 244.0 W/m2
16:27 89.8 °F /  32.1 °C 40.6 °F /  4.8 °C 29.59in /  1001.9hPa NW 0.9mph /  1.4km/h 3.0mph /  4.8km/h 18% 0.00in /  0mm 239.0 W/m2
16:32 89.8 °F /  32.1 °C 39.2 °F /  4 °C 29.59in /  1001.9hPa Calm   4.0mph /  6.4km/h 17% 0.00in /  0mm 272.0 W/m2
16:37 90.1 °F /  32.3 °C 41.0 °F /  5 °C 29.59in /  1001.9hPa North 0.9mph /  1.4km/h 3.0mph /  4.8km/h 18% 0.00in /  0mm 838.0 W/m2
16:42 90.7 °F /  32.6 °C 41.4 °F /  5.2 °C 29.59in /  1001.9hPa SE 2.9mph /  4.7km/h 3.0mph /  4.8km/h 18% 0.00in /  0mm 264.0 W/m2
16:47 91.8 °F /  33.2 °C 40.8 °F /  4.9 °C 29.59in /  1001.9hPa SW 2.9mph /  4.7km/h 7.0mph /  11.3km/h 17% 0.00in /  0mm 817.0 W/m2
16:52 92.7 °F /  33.7 °C 39.9 °F /  4.4 °C 29.59in /  1001.9hPa WSW 4.9mph /  7.9km/h 12.0mph /  19.3km/h 16% 0.00in /  0mm 814.0 W/m2
16:57 93.0 °F /  33.9 °C 40.3 °F /  4.6 °C 29.59in /  1001.9hPa SSW 2.0mph /  3.2km/h 5.0mph /  8km/h 16% 0.00in /  0mm 248.0 W/m2
17:02 92.5 °F /  33.6 °C 39.7 °F /  4.3 °C 29.58in /  1001.6hPa SSE 0.9mph /  1.4km/h 3.0mph /  4.8km/h 16% 0.00in /  0mm 260.0 W/m2
17:07 92.1 °F /  33.4 °C 39.6 °F /  4.2 °C 29.58in /  1001.6hPa WSW 0.9mph /  1.4km/h 4.0mph /  6.4km/h 16% 0.00in /  0mm 645.0 W/m2
17:12 92.3 °F /  33.5 °C 41.2 °F /  5.1 °C 29.58in /  1001.6hPa WSW 4.0mph /  6.4km/h 9.0mph /  14.5km/h 17% 0.00in /  0mm 234.0 W/m2
17:18 92.1 °F /  33.4 °C 39.6 °F /  4.2 °C 29.58in /  1001.6hPa West 6.0mph /  9.7km/h 9.0mph /  14.5km/h 16% 0.00in /  0mm 464.0 W/m2
17:23 91.6 °F /  33.1 °C 39.0 °F /  3.9 °C 29.58in /  1001.6hPa Calm   4.0mph /  6.4km/h 16% 0.00in /  0mm 193.0 W/m2
17:28 91.0 °F /  32.8 °C 40.1 °F /  4.5 °C 29.58in /  1001.6hPa West 0.9mph /  1.4km/h 7.0mph /  11.3km/h 17% 0.00in /  0mm 181.0 W/m2
17:33 90.7 °F /  32.6 °C 39.9 °F /  4.4 °C 29.58in /  1001.6hPa West 0.9mph /  1.4km/h 5.0mph /  8km/h 17% 0.00in /  0mm 162.0 W/m2
17:38 90.1 °F /  32.3 °C 39.4 °F /  4.1 °C 29.58in /  1001.6hPa SSW 2.0mph /  3.2km/h 2.0mph /  3.2km/h 17% 0.00in /  0mm 148.0 W/m2
17:43 89.8 °F /  32.1 °C 39.2 °F /  4 °C 29.57in /  1001.2hPa Calm   3.0mph /  4.8km/h 17% 0.00in /  0mm 139.0 W/m2
17:48 89.6 °F /  32 °C 40.5 °F /  4.7 °C 29.58in /  1001.6hPa WSW 2.9mph /  4.7km/h 3.0mph /  4.8km/h 18% 0.00in /  0mm 142.0 W/m2
17:53 89.2 °F /  31.8 °C 38.7 °F /  3.7 °C 29.58in /  1001.6hPa SW 2.0mph /  3.2km/h 7.0mph /  11.3km/h 17% 0.00in /  0mm 144.0 W/m2
17:59 89.1 °F /  31.7 °C 40.1 °F /  4.5 °C 29.58in /  1001.6hPa Calm   3.0mph /  4.8km/h 18% 0.00in /  0mm 118.0 W/m2
18:04 88.9 °F /  31.6 °C 39.9 °F /  4.4 °C 29.58in /  1001.6hPa WSW 2.9mph /  4.7km/h 3.0mph /  4.8km/h 18% 0.00in /  0mm 95.0 W/m2
18:09 88.7 °F /  31.5 °C 39.7 °F /  4.3 °C 29.58in /  1001.6hPa WSW 0.9mph /  1.4km/h 5.0mph /  8km/h 18% 0.00in /  0mm 74.0 W/m2
18:14 88.5 °F /  31.4 °C 39.6 °F /  4.2 °C 29.58in /  1001.6hPa Calm   3.0mph /  4.8km/h 18% 0.00in /  0mm 65.0 W/m2
18:19 88.3 °F /  31.3 °C 39.4 °F /  4.1 °C 29.58in /  1001.6hPa Calm   1.0mph /  1.6km/h 18% 0.00in /  0mm 60.0 W/m2
18:24 88.3 °F /  31.3 °C 39.4 °F /  4.1 °C 29.58in /  1001.6hPa Calm   5.0mph /  8km/h 18% 0.00in /  0mm 60.0 W/m2
18:29 88.2 °F /  31.2 °C 37.9 °F /  3.3 °C 29.58in /  1001.6hPa Calm   2.0mph /  3.2km/h 17% 0.00in /  0mm 70.0 W/m2
18:34 88.2 °F /  31.2 °C 39.4 °F /  4.1 °C 29.58in /  1001.6hPa Calm   1.0mph /  1.6km/h 18% 0.00in /  0mm 178.0 W/m2
18:36 88.3 °F /  31.3 °C 39.4 °F /  4.1 °C 29.58in /  1001.6hPa Calm   3.0mph /  4.8km/h 18% 0.00in /  0mm 200.0 W/m2
18:42 88.9 °F /  31.6 °C 38.5 °F /  3.6 °C 29.58in /  1001.6hPa ESE 2.0mph /  3.2km/h 3.0mph /  4.8km/h 17% 0.00in /  0mm 56.0 W/m2
18:47 88.9 °F /  31.6 °C 38.5 °F /  3.6 °C 29.58in /  1001.6hPa SW 0.9mph /  1.4km/h 5.0mph /  8km/h 17% 0.00in /  0mm 120.0 W/m2
18:52 88.9 °F /  31.6 °C 35.2 °F /  1.8 °C 29.58in /  1001.6hPa WSW 2.0mph /  3.2km/h 7.0mph /  11.3km/h 15% 0.00in /  0mm 111.0 W/m2
18:57 88.9 °F /  31.6 °C 35.2 °F /  1.8 °C 29.59in /  1001.9hPa Calm   6.0mph /  9.7km/h 15% 0.00in /  0mm 69.0 W/m2
19:02 88.5 °F /  31.4 °C 33.3 °F /  0.7 °C 29.59in /  1001.9hPa SW 4.0mph /  6.4km/h 8.0mph /  12.9km/h 14% 0.00in /  0mm 65.0 W/m2
19:07 88.0 °F /  31.1 °C 32.9 °F /  0.5 °C 29.59in /  1001.9hPa SW 2.9mph /  4.7km/h 10.0mph /  16.1km/h 14% 0.00in /  0mm 54.0 W/m2
19:12 87.4 °F /  30.8 °C 32.4 °F /  0.2 °C 29.59in /  1001.9hPa SW 2.9mph /  4.7km/h 10.0mph /  16.1km/h 14% 0.00in /  0mm 51.0 W/m2
19:17 86.9 °F /  30.5 °C 33.6 °F /  0.9 °C 29.59in /  1001.9hPa WSW 10.1mph /  16.3km/h 12.0mph /  19.3km/h 15% 0.00in /  0mm 39.0 W/m2
19:22 86.2 °F /  30.1 °C 33.1 °F /  0.6 °C 29.60in /  1002.3hPa West 2.0mph /  3.2km/h 7.0mph /  11.3km/h 15% 0.00in /  0mm 28.0 W/m2
19:27 85.5 °F /  29.7 °C 32.5 °F /  0.3 °C 29.61in /  1002.6hPa West 4.9mph /  7.9km/h 16.0mph /  25.7km/h 15% 0.00in /  0mm 19.0 W/m2
19:33 84.7 °F /  29.3 °C 32.0 °F /  0 °C 29.61in /  1002.6hPa SW 4.9mph /  7.9km/h 8.0mph /  12.9km/h 15% 0.00in /  0mm 14.0 W/m2
19:38 84.2 °F /  29 °C 31.5 °F /  -0.3 °C 29.62in /  1002.9hPa SW 4.0mph /  6.4km/h 16.0mph /  25.7km/h 15% 0.00in /  0mm 7.0 W/m2
19:43 83.5 °F /  28.6 °C 32.5 °F /  0.3 °C 29.62in /  1002.9hPa WSW 6.9mph /  11.1km/h 12.0mph /  19.3km/h 16% 0.00in /  0mm 0.0 W/m2
19:48 83.1 °F /  28.4 °C 32.4 °F /  0.2 °C 29.62in /  1002.9hPa WSW 2.0mph /  3.2km/h 9.0mph /  14.5km/h 16% 0.00in /  0mm 0.0 W/m2
19:53 82.8 °F /  28.2 °C 32.0 °F /  0 °C 29.62in /  1002.9hPa WSW 4.9mph /  7.9km/h 8.0mph /  12.9km/h 16% 0.00in /  0mm 0.0 W/m2
19:58 82.2 °F /  27.9 °C 31.6 °F /  -0.2 °C 29.63in /  1003.3hPa WSW 4.0mph /  6.4km/h 10.0mph /  16.1km/h 16% 0.00in /  0mm 0.0 W/m2
20:03 81.9 °F /  27.7 °C 31.3 °F /  -0.4 °C 29.63in /  1003.3hPa WNW 8.1mph /  13km/h 10.0mph /  16.1km/h 16% 0.00in /  0mm 0.0 W/m2
20:08 81.3 °F /  27.4 °C 30.9 °F /  -0.6 °C 29.64in /  1003.6hPa SW 10.1mph /  16.3km/h 10.1mph /  16.3km/h 16% 0.00in /  0mm 0.0 W/m2
20:13 81.0 °F /  27.2 °C 30.6 °F /  -0.8 °C 29.64in /  1003.6hPa SW 6.9mph /  11.1km/h 7.0mph /  11.3km/h 16% 0.00in /  0mm 0.0 W/m2
20:19 80.8 °F /  27.1 °C 31.8 °F /  -0.1 °C 29.64in /  1003.6hPa WSW 2.9mph /  4.7km/h 5.0mph /  8km/h 17% 0.00in /  0mm 0.0 W/m2
20:24 80.2 °F /  26.8 °C 31.5 °F /  -0.3 °C 29.65in /  1003.9hPa WSW 4.0mph /  6.4km/h 7.0mph /  11.3km/h 17% 0.00in /  0mm 0.0 W/m2
20:29 80.1 °F /  26.7 °C 31.3 °F /  -0.4 °C 29.65in /  1003.9hPa WSW 8.9mph /  14.3km/h 11.0mph /  17.7km/h 17% 0.00in /  0mm 0.0 W/m2
20:34 79.5 °F /  26.4 °C 30.9 °F /  -0.6 °C 29.66in /  1004.3hPa WSW 2.9mph /  4.7km/h 9.0mph /  14.5km/h 17% 0.00in /  0mm 0.0 W/m2
20:39 79.3 °F /  26.3 °C 30.7 °F /  -0.7 °C 29.66in /  1004.3hPa WSW 2.0mph /  3.2km/h 5.0mph /  8km/h 17% 0.00in /  0mm 0.0 W/m2
20:44 79.0 °F /  26.1 °C 30.4 °F /  -0.9 °C 29.66in /  1004.3hPa WSW 0.9mph /  1.4km/h 2.0mph /  3.2km/h 17% 0.00in /  0mm 0.0 W/m2
20:49 78.6 °F /  25.9 °C 30.2 °F /  -1 °C 29.66in /  1004.3hPa Calm   1.0mph /  1.6km/h 17% 0.00in /  0mm 0.0 W/m2
20:54 78.4 °F /  25.8 °C 30.0 °F /  -1.1 °C 29.67in /  1004.6hPa Calm   5.0mph /  8km/h 17% 0.00in /  0mm 0.0 W/m2
20:59 78.3 °F /  25.7 °C 29.8 °F /  -1.2 °C 29.67in /  1004.6hPa Calm   1.0mph /  1.6km/h 17% 0.00in /  0mm 0.0 W/m2
21:05 77.9 °F /  25.5 °C 29.7 °F /  -1.3 °C 29.67in /  1004.6hPa West 0.9mph /  1.4km/h 5.0mph /  8km/h 17% 0.00in /  0mm 0.0 W/m2
21:10 77.5 °F /  25.3 °C 29.3 °F /  -1.5 °C 29.67in /  1004.6hPa Calm   1.0mph /  1.6km/h 17% 0.00in /  0mm 0.0 W/m2
21:15 77.4 °F /  25.2 °C 29.1 °F /  -1.6 °C 29.68in /  1005hPa Calm     17% 0.00in /  0mm 0.0 W/m2
21:20 77.0 °F /  25 °C 30.2 °F /  -1 °C 29.68in /  1005hPa Calm   2.0mph /  3.2km/h 18% 0.00in /  0mm 0.0 W/m2
21:25 76.6 °F /  24.8 °C 28.6 °F /  -1.9 °C 29.68in /  1005hPa WSW 2.0mph /  3.2km/h 5.0mph /  8km/h 17% 0.00in /  0mm 0.0 W/m2
21:30 76.5 °F /  24.7 °C 29.8 °F /  -1.2 °C 29.69in /  1005.3hPa SSW 2.0mph /  3.2km/h 4.0mph /  6.4km/h 18% 0.00in /  0mm 0.0 W/m2
21:35 76.3 °F /  24.6 °C 29.7 °F /  -1.3 °C 29.69in /  1005.3hPa West 4.9mph /  7.9km/h 7.0mph /  11.3km/h 18% 0.00in /  0mm 0.0 W/m2
21:40 75.9 °F /  24.4 °C 29.3 °F /  -1.5 °C 29.69in /  1005.3hPa WNW 2.0mph /  3.2km/h 3.0mph /  4.8km/h 18% 0.00in /  0mm 0.0 W/m2
21:45 75.7 °F /  24.3 °C 29.3 °F /  -1.5 °C 29.69in /  1005.3hPa WSW 4.0mph /  6.4km/h 7.0mph /  11.3km/h 18% 0.00in /  0mm 0.0 W/m2
21:51 75.6 °F /  24.2 °C 29.1 °F /  -1.6 °C 29.69in /  1005.3hPa West 4.9mph /  7.9km/h 7.0mph /  11.3km/h 18% 0.00in /  0mm 0.0 W/m2
21:56 75.6 °F /  24.2 °C 29.1 °F /  -1.6 °C 29.69in /  1005.3hPa WSW 4.9mph /  7.9km/h 8.0mph /  12.9km/h 18% 0.00in /  0mm 0.0 W/m2
22:02 75.4 °F /  24.1 °C 28.9 °F /  -1.7 °C 29.69in /  1005.3hPa NW 2.9mph /  4.7km/h 8.0mph /  12.9km/h 18% 0.00in /  0mm 0.0 W/m2
22:07 75.4 °F /  24.1 °C 30.2 °F /  -1 °C 29.69in /  1005.3hPa SSW 2.0mph /  3.2km/h 6.0mph /  9.7km/h 19% 0.00in /  0mm 0.0 W/m2
22:12 75.2 °F /  24 °C 30.0 °F /  -1.1 °C 29.70in /  1005.6hPa WSW 0.9mph /  1.4km/h 11.0mph /  17.7km/h 19% 0.00in /  0mm 0.0 W/m2
22:17 75.0 °F /  23.9 °C 30.0 °F /  -1.1 °C 29.70in /  1005.6hPa West 0.9mph /  1.4km/h 2.0mph /  3.2km/h 19% 0.00in /  0mm 0.0 W/m2
22:22 74.8 °F /  23.8 °C 29.8 °F /  -1.2 °C 29.70in /  1005.6hPa WSW 2.0mph /  3.2km/h 4.0mph /  6.4km/h 19% 0.00in /  0mm 0.0 W/m2
22:27 74.7 °F /  23.7 °C 29.7 °F /  -1.3 °C 29.70in /  1005.6hPa Calm   3.0mph /  4.8km/h 19% 0.00in /  0mm 0.0 W/m2
22:32 74.5 °F /  23.6 °C 29.5 °F /  -1.4 °C 29.70in /  1005.6hPa SW 2.0mph /  3.2km/h 5.0mph /  8km/h 19% 0.00in /  0mm 0.0 W/m2
22:38 74.3 °F /  23.5 °C 30.6 °F /  -0.8 °C 29.70in /  1005.6hPa WSW 2.9mph /  4.7km/h 6.0mph /  9.7km/h 20% 0.00in /  0mm 0.0 W/m2
22:43 74.1 °F /  23.4 °C 30.6 °F /  -0.8 °C 29.70in /  1005.6hPa Calm   1.0mph /  1.6km/h 20% 0.00in /  0mm 0.0 W/m2
22:48 73.9 °F /  23.3 °C 30.4 °F /  -0.9 °C 29.71in /  1006hPa Calm   5.0mph /  8km/h 20% 0.00in /  0mm 0.0 W/m2
22:53 73.8 °F /  23.2 °C 30.2 °F /  -1 °C 29.71in /  1006hPa Calm     20% 0.00in /  0mm 0.0 W/m2
22:58 73.6 °F /  23.1 °C 30.0 °F /  -1.1 °C 29.71in /  1006hPa West 4.9mph /  7.9km/h 8.0mph /  12.9km/h 20% 0.00in /  0mm 0.0 W/m2
23:03 73.2 °F /  22.9 °C 29.7 °F /  -1.3 °C 29.71in /  1006hPa Calm   5.0mph /  8km/h 20% 0.00in /  0mm 0.0 W/m2
23:08 73.2 °F /  22.9 °C 30.9 °F /  -0.6 °C 29.71in /  1006hPa Calm   4.0mph /  6.4km/h 21% 0.00in /  0mm 0.0 W/m2
23:13 73.0 °F /  22.8 °C 30.7 °F /  -0.7 °C 29.71in /  1006hPa Calm   5.0mph /  8km/h 21% 0.00in /  0mm 0.0 W/m2
23:18 72.9 °F /  22.7 °C 30.6 °F /  -0.8 °C 29.71in /  1006hPa SW 0.9mph /  1.4km/h 3.0mph /  4.8km/h 21% 0.00in /  0mm 0.0 W/m2
23:23 72.9 °F /  22.7 °C 30.6 °F /  -0.8 °C 29.71in /  1006hPa WSW 2.9mph /  4.7km/h 7.0mph /  11.3km/h 21% 0.00in /  0mm 0.0 W/m2
23:28 72.7 °F /  22.6 °C 30.6 °F /  -0.8 °C 29.71in /  1006hPa West 2.9mph /  4.7km/h 3.0mph /  4.8km/h 21% 0.00in /  0mm 0.0 W/m2
23:33 72.7 °F /  22.6 °C 30.6 °F /  -0.8 °C 29.71in /  1006hPa Calm   3.0mph /  4.8km/h 21% 0.00in /  0mm 0.0 W/m2
23:38 72.3 °F /  22.4 °C 30.2 °F /  -1 °C 29.71in /  1006hPa Calm   3.0mph /  4.8km/h 21% 0.00in /  0mm 0.0 W/m2
23:43 72.3 °F /  22.4 °C 30.2 °F /  -1 °C 29.71in /  1006hPa Calm   4.0mph /  6.4km/h 21% 0.00in /  0mm 0.0 W/m2
23:48 72.1 °F /  22.3 °C 30.0 °F /  -1.1 °C 29.71in /  1006hPa Calm   1.0mph /  1.6km/h 21% 0.00in /  0mm 0.0 W/m2
23:53 72.1 °F /  22.3 °C 30.0 °F /  -1.1 °C 29.71in /  1006hPa Calm   1.0mph /  1.6km/h 21% 0.00in /  0mm 0.0 W/m2
23:58 72.0 °F /  22.2 °C 31.1 °F /  -0.5 °C 29.70in /  1005.6hPa Calm     22% 0.00in /  0mm 0.0 W/m2
Olympia, Windhoek, Namibia
Compliments of Weather Underground - 3.25 mb